Time;durP1;ratioP1;P1;durP2;ratioP2;P2;SDS_P1;SDS_P2;PMS_P1;PMS_P2;Temp;Humidity;BMP_temperature;BMP_pressure;BME280_temperature;BME280_humidity;BME280_pressure;Samples;Min_cycle;Max_cycle;Signal;HPM_P1;HPM_P2
2021/11/26 00:00:07;;;;;;;13.15;8.20;;;;;;;-144.57;100.00;62443.72;5050657;28;20492;-65
2021/11/26 00:02:33;;;;;;;13.48;8.07;;;;;;;-144.57;100.00;62443.72;5050579;28;20507;-65
2021/11/26 00:05:00;;;;;;;15.38;8.82;;;;;;;-144.57;100.00;62443.72;5050966;28;20037;-65
2021/11/26 00:07:26;;;;;;;14.05;8.05;;;;;;;-144.57;100.00;62443.72;5050646;28;20037;-66
2021/11/26 00:09:52;;;;;;;13.02;7.57;;;;;;;-144.57;100.00;62443.72;5049359;28;20048;-65
2021/11/26 00:12:19;;;;;;;13.15;8.25;;;;;;;-144.57;100.00;62443.72;5050905;28;20052;-65
2021/11/26 00:15:06;;;;;;;16.35;9.07;;;;;;;-144.57;100.00;62443.72;5050207;28;20080;-65
2021/11/26 00:17:34;;;;;;;15.90;8.10;;;;;;;-144.57;100.00;62443.72;5054483;28;20136;-66
2021/11/26 00:20:01;;;;;;;16.40;8.60;;;;;;;-144.57;100.00;62443.72;5054214;28;20040;-63
2021/11/26 00:22:28;;;;;;;16.13;8.30;;;;;;;-144.57;100.00;62443.72;5052692;28;20095;-65
2021/11/26 00:24:54;;;;;;;15.55;8.95;;;;;;;-144.57;100.00;62443.72;5054178;28;20037;-65
2021/11/26 00:27:20;;;;;;;13.82;8.82;;;;;;;-144.57;100.00;62443.72;5054036;28;20143;-63
2021/11/26 00:29:46;;;;;;;14.20;8.77;;;;;;;-144.57;100.00;62443.72;5053834;28;20079;-67
2021/11/26 00:32:12;;;;;;;16.42;9.70;;;;;;;-144.57;100.00;62443.72;5053857;28;20040;-66
2021/11/26 00:34:38;;;;;;;16.10;8.52;;;;;;;-144.57;100.00;62443.72;5053980;28;20102;-67
2021/11/26 00:37:04;;;;;;;12.98;8.82;;;;;;;-144.57;100.00;62443.72;5052375;28;20522;-67
2021/11/26 00:39:30;;;;;;;15.15;8.00;;;;;;;-144.57;100.00;62443.72;5053779;28;20420;-65
2021/11/26 00:41:56;;;;;;;18.52;8.65;;;;;;;-144.57;100.00;62443.72;5052483;28;20464;-64
2021/11/26 00:44:22;;;;;;;14.40;8.80;;;;;;;-144.57;100.00;62443.72;5054178;28;20049;-65
2021/11/26 00:46:48;;;;;;;15.13;8.20;;;;;;;-144.57;100.00;62443.72;5053775;28;20095;-66
2021/11/26 00:49:14;;;;;;;17.13;9.52;;;;;;;-144.57;100.00;62443.72;5054077;28;20048;-65
2021/11/26 00:51:41;;;;;;;15.30;9.10;;;;;;;-144.57;100.00;62443.72;5053469;28;20485;-65
2021/11/26 00:54:07;;;;;;;18.13;9.63;;;;;;;-144.57;100.00;62443.72;5035775;28;20524;-64
2021/11/26 00:56:34;;;;;;;14.52;8.80;;;;;;;-144.57;100.00;62443.72;5053319;28;20041;-63
2021/11/26 00:59:00;;;;;;;17.92;9.07;;;;;;;-144.57;100.00;62443.72;5052363;28;20044;-63
2021/11/26 01:01:26;;;;;;;14.40;8.50;;;;;;;-144.57;100.00;62443.72;5052043;28;20063;-64
2021/11/26 01:03:51;;;;;;;20.75;9.07;;;;;;;-144.57;100.00;62443.72;5052101;28;20056;-64
2021/11/26 01:06:17;;;;;;;14.73;8.85;;;;;;;-144.57;100.00;62443.72;5052209;28;20090;-64
2021/11/26 01:08:43;;;;;;;17.85;9.57;;;;;;;-144.57;100.00;62443.72;5053645;28;20076;-64
2021/11/26 01:11:09;;;;;;;15.73;9.93;;;;;;;-144.57;100.00;62443.72;5053349;28;20252;-64
2021/11/26 01:13:35;;;;;;;16.60;9.13;;;;;;;-144.57;100.00;62443.72;5035180;28;20045;-64
2021/11/26 01:16:02;;;;;;;16.05;10.23;;;;;;;-144.57;100.00;62443.72;5053357;28;20416;-64
2021/11/26 01:18:28;;;;;;;14.80;8.27;;;;;;;-144.57;100.00;62443.72;5053008;28;20510;-65
2021/11/26 01:20:54;;;;;;;20.52;10.30;;;;;;;-144.57;100.00;62443.72;5053011;28;20068;-64
2021/11/26 01:23:20;;;;;;;16.98;9.82;;;;;;;-144.57;100.00;62443.72;5052026;28;20502;-64
2021/11/26 01:25:46;;;;;;;15.95;9.80;;;;;;;-144.57;100.00;62443.72;5052573;28;20094;-64
2021/11/26 01:28:11;;;;;;;17.58;9.40;;;;;;;-144.57;100.00;62443.72;5051241;28;20387;-65
2021/11/26 01:30:41;;;;;;;17.38;10.00;;;;;;;-144.57;100.00;62443.72;5052710;28;20109;-64
2021/11/26 01:33:09;;;;;;;20.55;10.65;;;;;;;-144.57;100.00;62443.72;5053298;28;20059;-65
2021/11/26 01:35:37;;;;;;;18.67;11.10;;;;;;;-144.57;100.00;62443.72;5052518;28;20521;-67
2021/11/26 01:38:06;;;;;;;18.92;11.05;;;;;;;-144.57;100.00;62443.72;5053058;28;20048;-65
2021/11/26 01:40:34;;;;;;;20.13;10.75;;;;;;;-144.57;100.00;62443.72;5052525;28;20044;-65
2021/11/26 01:43:00;;;;;;;20.25;11.25;;;;;;;-144.57;100.00;62443.72;5051618;28;20045;-64
2021/11/26 01:45:26;;;;;;;18.25;10.50;;;;;;;-144.57;100.00;62443.72;5052511;28;20066;-64
2021/11/26 01:47:53;;;;;;;19.67;10.95;;;;;;;-144.57;100.00;62443.72;5051280;28;20383;-65
2021/11/26 01:50:22;;;;;;;21.00;10.45;;;;;;;-144.57;100.00;62443.72;5051355;28;20048;-64
2021/11/26 01:52:48;;;;;;;25.90;10.30;;;;;;;-144.57;100.00;62443.72;5052488;28;20132;-64
2021/11/26 01:55:17;;;;;;;20.90;10.68;;;;;;;-144.57;100.00;62443.72;5050994;28;20048;-64
2021/11/26 01:57:45;;;;;;;17.10;9.95;;;;;;;-144.57;100.00;62443.72;5052520;28;20043;-65
2021/11/26 02:00:15;;;;;;;23.90;12.25;;;;;;;-144.57;100.00;62443.72;5052399;28;20147;-64
2021/11/26 02:02:42;;;;;;;20.80;11.13;;;;;;;-144.57;100.00;62443.72;5051063;28;20533;-64
2021/11/26 02:05:08;;;;;;;16.95;10.70;;;;;;;-144.57;100.00;62443.72;5052228;28;20133;-64
2021/11/26 02:07:34;;;;;;;18.80;10.43;;;;;;;-144.57;100.00;62443.72;5052244;28;20045;-63
2021/11/26 02:10:00;;;;;;;19.45;10.38;;;;;;;-144.57;100.00;62443.72;5052197;28;20409;-64
2021/11/26 02:12:26;;;;;;;20.73;11.60;;;;;;;-144.57;100.00;62443.72;5034591;28;20462;-63
2021/11/26 02:14:52;;;;;;;22.35;10.98;;;;;;;-144.57;100.00;62443.72;5052061;28;20052;-63
2021/11/26 02:17:18;;;;;;;21.88;10.85;;;;;;;-144.57;100.00;62443.72;5034346;28;20110;-65
2021/11/26 02:19:44;;;;;;;19.90;11.10;;;;;;;-144.57;100.00;62443.72;5050577;28;20068;-64
2021/11/26 02:22:10;;;;;;;20.42;11.27;;;;;;;-144.57;100.00;62443.72;5050963;28;20051;-64
2021/11/26 02:24:36;;;;;;;21.25;11.27;;;;;;;-144.57;100.00;62443.72;5052032;28;20047;-65
2021/11/26 02:27:03;;;;;;;20.05;11.48;;;;;;;-144.57;100.00;62443.72;5050413;28;20088;-64
2021/11/26 02:29:29;;;;;;;21.90;11.32;;;;;;;-144.57;100.00;62443.72;5051989;28;20091;-65
2021/11/26 02:31:56;;;;;;;19.65;10.55;;;;;;;-144.57;100.00;62443.72;5051627;28;20514;-66
2021/11/26 02:34:22;;;;;;;19.10;11.20;;;;;;;-144.57;100.00;62443.72;5050521;28;20040;-64
2021/11/26 02:36:48;;;;;;;22.23;12.27;;;;;;;-144.57;100.00;62443.72;5051500;28;20048;-65
2021/11/26 02:39:14;;;;;;;22.90;12.13;;;;;;;-144.57;100.00;62443.72;5051948;28;20041;-66
2021/11/26 02:41:42;;;;;;;21.98;12.80;;;;;;;-144.57;100.00;62443.72;5051546;28;20572;-66
2021/11/26 02:44:08;;;;;;;21.10;11.68;;;;;;;-144.57;100.00;62443.72;5050464;28;20090;-64
2021/11/26 02:46:35;;;;;;;20.92;12.10;;;;;;;-144.57;100.00;62443.72;5051341;28;20566;-65
2021/11/26 02:49:01;;;;;;;20.27;11.23;;;;;;;-144.57;100.00;62443.72;5051943;28;20037;-65
2021/11/26 02:51:27;;;;;;;21.52;11.48;;;;;;;-144.57;100.00;62443.72;5050486;28;20040;-64
2021/11/26 02:53:53;;;;;;;21.08;11.48;;;;;;;-144.57;100.00;62443.72;5051719;28;20444;-66
2021/11/26 02:56:19;;;;;;;20.42;11.05;;;;;;;-144.57;100.00;62443.72;5051319;28;20041;-65
2021/11/26 02:58:45;;;;;;;21.95;12.10;;;;;;;-144.57;100.00;62443.72;5051713;28;20102;-65
2021/11/26 03:01:11;;;;;;;25.00;11.73;;;;;;;-144.57;100.00;62443.72;5051520;28;20076;-64
2021/11/26 03:03:37;;;;;;;21.80;11.07;;;;;;;-144.57;100.00;62443.72;5017112;28;20406;-65
2021/11/26 03:06:05;;;;;;;22.92;11.52;;;;;;;-144.57;100.00;62443.72;5051794;28;20044;-65
2021/11/26 03:08:32;;;;;;;23.40;11.95;;;;;;;-144.57;100.00;62443.72;5051567;28;20041;-64
2021/11/26 03:11:00;;;;;;;19.95;10.40;;;;;;;-144.57;100.00;62443.72;5051120;28;20504;-65
2021/11/26 03:13:27;;;;;;;21.13;11.02;;;;;;;-144.57;100.00;62443.72;5050122;28;20118;-64
2021/11/26 03:15:54;;;;;;;21.77;11.85;;;;;;;-144.57;100.00;62443.72;5049668;28;20110;-64
2021/11/26 03:18:20;;;;;;;23.17;11.95;;;;;;;-144.57;100.00;62443.72;5051066;28;20426;-65
2021/11/26 03:20:48;;;;;;;23.27;11.80;;;;;;;-144.57;100.00;62443.72;5051196;28;20048;-65
2021/11/26 03:23:14;;;;;;;20.10;12.00;;;;;;;-144.57;100.00;62443.72;5051300;28;20037;-64
2021/11/26 03:25:41;;;;;;;24.00;12.18;;;;;;;-144.57;100.00;62443.72;5051253;28;20092;-65
2021/11/26 03:28:12;;;;;;;25.15;12.68;;;;;;;-144.57;100.00;62443.72;5050031;28;20053;-65
2021/11/26 03:30:38;;;;;;;18.77;10.85;;;;;;;-144.57;100.00;62443.72;5051325;28;20044;-64
2021/11/26 03:33:04;;;;;;;23.63;12.20;;;;;;;-144.57;100.00;62443.72;5049773;28;20453;-65
2021/11/26 03:35:33;;;;;;;22.05;12.13;;;;;;;-144.57;100.00;62443.72;5049625;28;20049;-65
2021/11/26 03:38:00;;;;;;;21.98;11.50;;;;;;;-144.57;100.00;62443.72;5051455;28;20250;-65
2021/11/26 03:40:28;;;;;;;20.50;11.40;;;;;;;-144.57;100.00;62443.72;5050780;28;20052;-63
2021/11/26 03:42:55;;;;;;;24.85;12.70;;;;;;;-144.57;100.00;62443.72;5051043;28;20068;-65
2021/11/26 03:45:24;;;;;;;22.10;11.63;;;;;;;-144.57;100.00;62443.72;5049489;28;20565;-65
2021/11/26 03:47:50;;;;;;;24.35;12.05;;;;;;;-144.57;100.00;62443.72;5051162;28;20045;-65
2021/11/26 03:50:18;;;;;;;21.58;11.77;;;;;;;-144.57;100.00;62443.72;5034960;28;20041;-64
2021/11/26 03:52:44;;;;;;;20.05;11.80;;;;;;;-144.57;100.00;62443.72;5054925;28;20409;-65
2021/11/26 03:55:13;;;;;;;23.85;12.50;;;;;;;-144.57;100.00;62443.72;5054777;28;20133;-65
2021/11/26 03:57:40;;;;;;;19.15;10.80;;;;;;;-144.57;100.00;62443.72;5054580;28;20048;-66
2021/11/26 04:00:07;;;;;;;20.88;12.02;;;;;;;-144.57;100.00;62443.72;5053422;28;20051;-65
2021/11/26 04:02:38;;;;;;;22.77;11.88;;;;;;;-144.57;100.00;62443.72;5054785;28;20049;-65
2021/11/26 04:05:05;;;;;;;21.60;11.88;;;;;;;-144.57;100.00;62443.72;5054152;28;20518;-66
2021/11/26 04:07:31;;;;;;;21.38;12.07;;;;;;;-144.57;100.00;62443.72;5054241;28;20036;-66
2021/11/26 04:09:58;;;;;;;22.38;12.23;;;;;;;-144.57;100.00;62443.72;5054577;28;20131;-64
2021/11/26 04:12:24;;;;;;;20.10;11.00;;;;;;;-144.57;100.00;62443.72;5052943;28;20409;-64
2021/11/26 04:14:54;;;;;;;23.88;12.18;;;;;;;-144.57;100.00;62443.72;5054074;28;20648;-64
2021/11/26 04:17:21;;;;;;;22.92;11.77;;;;;;;-144.57;100.00;62443.72;5054455;28;20094;-65
2021/11/26 04:19:47;;;;;;;22.08;11.98;;;;;;;-144.57;100.00;62443.72;5054075;28;20514;-66
2021/11/26 04:22:13;;;;;;;20.60;12.35;;;;;;;-144.57;100.00;62443.72;5053942;28;20045;-65
2021/11/26 04:24:40;;;;;;;22.58;12.43;;;;;;;-144.57;100.00;62443.72;5052830;28;20140;-66
2021/11/26 04:27:05;;;;;;;20.77;12.15;;;;;;;-144.57;100.00;62443.72;5053448;28;20136;-64
2021/11/26 04:29:31;;;;;;;19.13;11.43;;;;;;;-144.57;100.00;62443.72;5051856;28;20045;-65
2021/11/26 04:31:57;;;;;;;21.33;10.75;;;;;;;-144.57;100.00;62443.72;5052346;28;20037;-65
2021/11/26 04:34:23;;;;;;;21.15;11.57;;;;;;;-144.57;100.00;62443.72;5054305;28;20133;-66
2021/11/26 04:36:49;;;;;;;20.42;10.88;;;;;;;-144.57;100.00;62443.72;5054023;28;20109;-66
2021/11/26 04:39:15;;;;;;;20.58;11.73;;;;;;;-144.57;100.00;62443.72;5053692;28;20068;-64
2021/11/26 04:41:41;;;;;;;21.20;11.48;;;;;;;-144.57;100.00;62443.72;5053397;28;20503;-65
2021/11/26 04:44:07;;;;;;;19.35;10.88;;;;;;;-144.57;100.00;62443.72;5035846;28;20178;-63
2021/11/26 04:46:33;;;;;;;23.00;11.68;;;;;;;-144.57;100.00;62443.72;5053535;28;20048;-62
2021/11/26 04:48:59;;;;;;;19.42;10.98;;;;;;;-144.57;100.00;62443.72;5053976;28;20147;-64
2021/11/26 04:51:26;;;;;;;18.40;10.93;;;;;;;-144.57;100.00;62443.72;5052401;28;20060;-63
2021/11/26 04:53:52;;;;;;;20.63;11.05;;;;;;;-144.57;100.00;62443.72;5053739;28;20406;-64
2021/11/26 04:56:17;;;;;;;18.35;10.55;;;;;;;-144.57;100.00;62443.72;5053210;28;20537;-65
2021/11/26 04:58:43;;;;;;;17.70;10.02;;;;;;;-144.57;100.00;62443.72;5052018;28;20480;-64
2021/11/26 05:01:09;;;;;;;20.52;11.32;;;;;;;-144.57;100.00;62443.72;5052151;28;20519;-63
2021/11/26 05:03:35;;;;;;;18.27;10.55;;;;;;;-144.57;100.00;62443.72;5053487;28;20045;-65
2021/11/26 05:06:01;;;;;;;21.05;10.88;;;;;;;-144.57;100.00;62443.72;5035287;28;20106;-64
2021/11/26 05:08:28;;;;;;;23.35;11.93;;;;;;;-144.57;100.00;62443.72;5053519;28;20045;-62
2021/11/26 05:10:54;;;;;;;22.40;11.43;;;;;;;-144.57;100.00;62443.72;5052990;28;20452;-64
2021/11/26 05:13:23;;;;;;;20.60;11.95;;;;;;;-144.57;100.00;62443.72;5053302;28;20106;-65
2021/11/26 05:15:49;;;;;;;21.58;10.98;;;;;;;-144.57;100.00;62443.72;5035100;28;20053;-63
2021/11/26 05:18:15;;;;;;;18.95;10.85;;;;;;;-144.57;100.00;62443.72;5051729;28;20102;-63
2021/11/26 05:20:42;;;;;;;20.05;11.25;;;;;;;-144.57;100.00;62443.72;5052714;28;20049;-65
2021/11/26 05:23:12;;;;;;;19.70;10.65;;;;;;;-144.57;100.00;62443.72;5053034;28;20073;-62
2021/11/26 05:25:42;;;;;;;18.70;10.40;;;;;;;-144.57;100.00;62443.72;5003256;28;20083;-64
2021/11/26 05:28:08;;;;;;;17.20;10.82;;;;;;;-144.57;100.00;62443.72;5051661;28;20502;-64
2021/11/26 05:30:34;;;;;;;19.75;11.65;;;;;;;-144.57;100.00;62443.72;5052929;28;20414;-63
2021/11/26 05:33:01;;;;;;;19.13;11.07;;;;;;;-144.57;100.00;62443.72;5051779;28;20489;-62
2021/11/26 05:35:27;;;;;;;20.30;11.75;;;;;;;-144.57;100.00;62443.72;5051387;28;20055;-64
2021/11/26 05:37:53;;;;;;;24.25;11.48;;;;;;;-144.57;100.00;62443.72;5043742;28;20397;-64
2021/11/26 05:40:19;;;;;;;21.73;11.70;;;;;;;-144.57;100.00;62443.72;5051085;28;20040;-64
2021/11/26 05:42:46;;;;;;;19.02;10.05;;;;;;;-144.57;100.00;62443.72;5032584;28;20036;-64
2021/11/26 05:45:14;;;;;;;17.20;10.13;;;;;;;-144.57;100.00;62443.72;5049673;28;20067;-64
2021/11/26 05:47:41;;;;;;;16.60;10.05;;;;;;;-144.57;100.00;62443.72;5051003;28;20040;-64
2021/11/26 05:50:09;;;;;;;21.23;10.25;;;;;;;-144.57;100.00;62443.72;5032598;28;20135;-64
2021/11/26 05:52:36;;;;;;;18.83;10.55;;;;;;;-144.57;100.00;62443.72;5031772;28;20415;-63
2021/11/26 05:55:08;;;;;;;20.08;10.52;;;;;;;-144.57;100.00;62443.72;5032723;28;20045;-65
2021/11/26 05:57:34;;;;;;;17.67;10.48;;;;;;;-144.57;100.00;62443.72;5049857;28;20041;-63
2021/11/26 06:00:00;;;;;;;17.63;9.85;;;;;;;-144.57;100.00;62443.72;5047413;28;20056;-63
2021/11/26 06:02:26;;;;;;;18.25;10.20;;;;;;;-144.57;100.00;62443.72;5048117;28;20414;-64
2021/11/26 06:04:52;;;;;;;19.65;11.23;;;;;;;-144.57;100.00;62443.72;5046693;28;20045;-64
2021/11/26 06:07:17;;;;;;;17.95;10.52;;;;;;;-144.57;100.00;62443.72;5046617;28;20036;-64
2021/11/26 06:09:43;;;;;;;18.05;10.55;;;;;;;-144.57;100.00;62443.72;5050311;28;20506;-63
2021/11/26 06:12:10;;;;;;;17.48;10.77;;;;;;;-144.57;100.00;62443.72;5047173;28;20136;-64
2021/11/26 06:14:37;;;;;;;21.33;10.38;;;;;;;-144.57;100.00;62443.72;5047940;28;20048;-64
2021/11/26 06:17:03;;;;;;;17.90;10.15;;;;;;;-144.57;100.00;62443.72;5048950;28;20041;-65
2021/11/26 06:19:30;;;;;;;20.90;10.65;;;;;;;-144.57;100.00;62443.72;5047879;28;20143;-65
2021/11/26 06:21:56;;;;;;;22.15;11.63;;;;;;;-144.57;100.00;62443.72;5046240;28;20040;-64
2021/11/26 06:24:22;;;;;;;19.33;10.45;;;;;;;-144.57;100.00;62443.72;5048182;28;20414;-64
2021/11/26 06:26:48;;;;;;;17.98;10.27;;;;;;;-144.57;100.00;62443.72;5028819;28;20064;-63
2021/11/26 06:29:15;;;;;;;23.60;11.65;;;;;;;-144.57;100.00;62443.72;5047006;28;20056;-64
2021/11/26 06:31:41;;;;;;;18.90;10.48;;;;;;;-144.57;100.00;62443.72;5046634;28;20409;-64
2021/11/26 06:34:07;;;;;;;19.55;10.23;;;;;;;-144.57;100.00;62443.72;5041823;28;20045;-64
2021/11/26 06:36:34;;;;;;;18.63;10.23;;;;;;;-144.57;100.00;62443.72;5030603;28;20037;-66
2021/11/26 06:39:00;;;;;;;21.42;12.40;;;;;;;-144.57;100.00;62443.72;5027755;28;20041;-64
2021/11/26 06:41:27;;;;;;;16.85;9.77;;;;;;;-144.57;100.00;62443.72;5028097;28;20053;-66
2021/11/26 06:43:52;;;;;;;17.23;10.40;;;;;;;-144.57;100.00;62443.72;5025871;28;20046;-63
2021/11/26 06:46:18;;;;;;;21.27;10.95;;;;;;;-144.57;100.00;62443.72;5010300;28;20585;-63
2021/11/26 06:48:44;;;;;;;17.95;9.57;;;;;;;-144.57;100.00;62443.72;5027184;28;20038;-65
2021/11/26 06:51:10;;;;;;;17.48;10.20;;;;;;;-144.57;100.00;62443.72;5026484;28;20049;-64
2021/11/26 06:53:36;;;;;;;19.55;10.75;;;;;;;-144.57;100.00;62443.72;5009051;28;20398;-67
2021/11/26 06:56:04;;;;;;;18.00;10.15;;;;;;;-144.57;100.00;62443.72;5025978;28;20053;-66
2021/11/26 06:58:29;;;;;;;17.23;10.30;;;;;;;-144.57;100.00;62443.72;5024299;28;20215;-64
2021/11/26 07:00:55;;;;;;;20.25;11.10;;;;;;;-144.57;100.00;62443.72;5025398;28;20049;-66
2021/11/26 07:03:21;;;;;;;20.10;10.55;;;;;;;-144.57;100.00;62443.72;5025167;28;20183;-64
2021/11/26 07:05:47;;;;;;;19.10;10.32;;;;;;;-144.57;100.00;62443.72;5024197;28;20051;-62
2021/11/26 07:08:14;;;;;;;21.15;9.75;;;;;;;-144.57;100.00;62443.72;5026744;28;20052;-65
2021/11/26 07:10:40;;;;;;;20.30;10.00;;;;;;;-144.57;100.00;62443.72;5027170;28;20414;-65
2021/11/26 07:13:06;;;;;;;19.80;10.35;;;;;;;-144.57;100.00;62443.72;5026907;28;20048;-63
2021/11/26 07:15:32;;;;;;;20.30;10.60;;;;;;;-144.57;100.00;62443.72;5028726;28;20042;-63
2021/11/26 07:17:57;;;;;;;16.40;9.68;;;;;;;-144.57;100.00;62443.72;5027847;28;20121;-64
2021/11/26 07:20:23;;;;;;;21.13;9.85;;;;;;;-144.57;100.00;62443.72;5025613;28;20172;-64
2021/11/26 07:22:49;;;;;;;15.93;9.02;;;;;;;-144.57;100.00;62443.72;5028058;28;20130;-64
2021/11/26 07:25:16;;;;;;;17.52;9.93;;;;;;;-144.57;100.00;62443.72;5029027;28;20513;-64
2021/11/26 07:27:42;;;;;;;17.88;10.50;;;;;;;-144.57;100.00;62443.72;5031302;28;20335;-64
2021/11/26 07:30:10;;;;;;;19.05;10.27;;;;;;;-144.57;100.00;62443.72;5030294;28;20497;-65
2021/11/26 07:32:36;;;;;;;23.23;10.13;;;;;;;-144.57;100.00;62443.72;5030076;28;20457;-64
2021/11/26 07:35:03;;;;;;;18.17;10.52;;;;;;;-144.57;100.00;62443.72;5029101;28;20099;-66
2021/11/26 07:37:29;;;;;;;17.52;10.10;;;;;;;-144.57;100.00;62443.72;5028890;28;20477;-65
2021/11/26 07:39:55;;;;;;;18.52;10.60;;;;;;;-144.57;100.00;62443.72;5028350;28;20061;-65
2021/11/26 07:42:21;;;;;;;18.20;10.27;;;;;;;-144.57;100.00;62443.72;5029831;28;20049;-64
2021/11/26 07:44:47;;;;;;;18.52;10.07;;;;;;;-144.57;100.00;62443.72;5030760;28;20056;-64
2021/11/26 07:47:15;;;;;;;20.40;10.43;;;;;;;-144.57;100.00;62443.72;5031019;28;20033;-64
2021/11/26 07:49:42;;;;;;;20.17;10.57;;;;;;;-144.57;100.00;62443.72;5028854;28;20045;-64
2021/11/26 07:52:09;;;;;;;17.80;9.77;;;;;;;-144.57;100.00;62443.72;5030324;28;20164;-63
2021/11/26 07:54:35;;;;;;;16.23;9.65;;;;;;;-144.57;100.00;62443.72;5033054;28;20057;-64
2021/11/26 07:57:01;;;;;;;15.80;9.55;;;;;;;-144.57;100.00;62443.72;5032590;28;20453;-63
2021/11/26 07:59:27;;;;;;;22.65;9.70;;;;;;;-144.57;100.00;62443.72;5032805;28;20114;-66
2021/11/26 08:01:54;;;;;;;16.83;9.02;;;;;;;-144.57;100.00;62443.72;5028686;28;20220;-67
2021/11/26 08:04:20;;;;;;;16.73;9.43;;;;;;;-144.57;100.00;62443.72;5031681;28;20104;-64
2021/11/26 08:06:47;;;;;;;18.40;9.68;;;;;;;-144.57;100.00;62443.72;5026467;28;20573;-64
2021/11/26 08:09:14;;;;;;;19.40;9.10;;;;;;;-144.57;100.00;62443.72;5031841;28;20045;-64
2021/11/26 08:11:40;;;;;;;18.23;9.35;;;;;;;-144.57;100.00;62443.72;5032721;28;20053;-65
2021/11/26 08:14:07;;;;;;;19.15;10.30;;;;;;;-144.57;100.00;62443.72;5028352;28;20414;-65
2021/11/26 08:16:34;;;;;;;18.55;9.40;;;;;;;-144.57;100.00;62443.72;5027703;28;20571;-64
2021/11/26 08:19:00;;;;;;;19.95;9.35;;;;;;;-144.57;100.00;62443.72;5012506;28;20045;-64
2021/11/26 08:21:26;;;;;;;16.33;9.38;;;;;;;-144.57;100.00;62443.72;4993858;28;20045;-65
2021/11/26 08:23:52;;;;;;;18.92;10.15;;;;;;;-144.57;100.00;62443.72;5031427;28;20402;-64
2021/11/26 08:26:18;;;;;;;19.10;10.27;;;;;;;-144.57;100.00;62443.72;5030577;28;20088;-63
2021/11/26 08:28:44;;;;;;;19.13;10.23;;;;;;;-144.57;100.00;62443.72;5011121;28;20037;-64
2021/11/26 08:31:10;;;;;;;18.33;9.75;;;;;;;-144.57;100.00;62443.72;5012773;28;20046;-64
2021/11/26 08:33:36;;;;;;;17.45;9.40;;;;;;;-144.57;100.00;62443.72;5030354;28;20220;-63
2021/11/26 08:36:02;;;;;;;16.45;8.95;;;;;;;-144.57;100.00;62443.72;5026997;28;20051;-64
2021/11/26 08:38:28;;;;;;;18.23;10.00;;;;;;;-144.57;100.00;62443.72;5030719;28;20045;-64
2021/11/26 08:40:54;;;;;;;20.52;10.10;;;;;;;-144.57;100.00;62443.72;5013185;28;20057;-64
2021/11/26 08:43:21;;;;;;;17.95;9.73;;;;;;;-144.57;100.00;62443.72;5030236;28;20534;-64
2021/11/26 08:45:47;;;;;;;19.60;10.57;;;;;;;-144.57;100.00;62443.72;5029699;28;20095;-64
2021/11/26 08:48:13;;;;;;;16.83;9.88;;;;;;;-144.57;100.00;62443.72;5029748;28;20131;-64
2021/11/26 08:50:40;;;;;;;19.83;10.77;;;;;;;-144.57;100.00;62443.72;5043594;28;20692;-64
2021/11/26 08:53:06;;;;;;;18.85;11.07;;;;;;;-144.57;100.00;62443.72;5047786;28;20068;-64
2021/11/26 08:55:34;;;;;;;23.38;10.43;;;;;;;-144.57;100.00;62443.72;5050294;28;20076;-65
2021/11/26 08:58:01;;;;;;;18.58;9.82;;;;;;;-144.57;100.00;62443.72;5050279;28;20041;-63
2021/11/26 09:00:35;;;;;;;16.80;9.43;;;;;;;-144.57;100.00;62443.72;5049854;28;20496;-63
2021/11/26 09:03:05;;;;;;;19.80;11.13;;;;;;;-144.57;100.00;62443.72;5051154;28;20064;-63
2021/11/26 09:05:32;;;;;;;18.95;10.40;;;;;;;-144.57;100.00;62443.72;5048175;28;20143;-65
2021/11/26 09:08:02;;;;;;;19.83;9.95;;;;;;;-144.57;100.00;62443.72;5051244;28;20128;-63
2021/11/26 09:10:31;;;;;;;16.60;8.70;;;;;;;-144.57;100.00;62443.72;5050087;28;20072;-65
2021/11/26 09:12:57;;;;;;;18.10;9.35;;;;;;;-144.57;100.00;62443.72;5047241;28;20041;-65
2021/11/26 09:15:23;;;;;;;16.30;9.75;;;;;;;-144.57;100.00;62443.72;5049442;28;20107;-63
2021/11/26 09:17:50;;;;;;;17.48;9.38;;;;;;;-144.57;100.00;62443.72;5049198;28;20454;-64
2021/11/26 09:20:17;;;;;;;17.20;9.23;;;;;;;-144.57;100.00;62443.72;5049022;28;20178;-64
2021/11/26 09:22:44;;;;;;;18.70;9.55;;;;;;;-144.57;100.00;62443.72;5047412;28;20033;-65
2021/11/26 09:25:10;;;;;;;21.60;10.50;;;;;;;-144.57;100.00;62443.72;5048097;28;20068;-64
2021/11/26 09:27:36;;;;;;;18.30;10.18;;;;;;;-144.57;100.00;62443.72;5043694;28;20191;-64
2021/11/26 09:30:04;;;;;;;18.63;10.27;;;;;;;-144.57;100.00;62443.72;5046565;28;20132;-63
2021/11/26 09:32:30;;;;;;;19.42;9.30;;;;;;;-144.57;100.00;62443.72;5030409;28;20052;-64
2021/11/26 09:34:56;;;;;;;15.25;8.88;;;;;;;-144.57;100.00;62443.72;5045369;28;20422;-64
2021/11/26 09:37:22;;;;;;;21.83;10.65;;;;;;;-144.57;100.00;62443.72;5048441;28;20037;-64
2021/11/26 09:39:50;;;;;;;19.92;9.77;;;;;;;-144.57;100.00;62443.72;5047234;28;20045;-64
2021/11/26 09:42:16;;;;;;;19.10;10.23;;;;;;;-144.57;100.00;62443.72;5046264;28;20036;-64
2021/11/26 09:44:44;;;;;;;17.67;9.93;;;;;;;-144.57;100.00;62443.72;5045605;28;20052;-64
2021/11/26 09:47:10;;;;;;;18.48;9.95;;;;;;;-144.57;100.00;62443.72;5045779;28;20052;-66
2021/11/26 09:49:36;;;;;;;18.95;11.13;;;;;;;-144.57;100.00;62443.72;5047683;28;20147;-66
2021/11/26 09:52:03;;;;;;;20.77;10.20;;;;;;;-144.57;100.00;62443.72;5047240;28;20167;-66
2021/11/26 09:54:39;;;;;;;19.85;10.15;;;;;;;-144.57;100.00;62443.72;5048169;28;20049;-65
2021/11/26 09:57:07;;;;;;;20.17;10.07;;;;;;;-144.57;100.00;62443.72;5048275;28;20041;-64
2021/11/26 09:59:33;;;;;;;16.95;9.77;;;;;;;-144.57;100.00;62443.72;5049158;28;20069;-68
2021/11/26 10:02:13;;;;;;;17.77;10.38;;;;;;;-144.57;100.00;62443.72;5046869;28;20056;-65
2021/11/26 10:04:39;;;;;;;18.73;10.02;;;;;;;-144.57;100.00;62443.72;5045701;28;20081;-65
2021/11/26 10:07:07;;;;;;;19.58;10.48;;;;;;;-144.57;100.00;62443.72;5046912;28;20075;-65
2021/11/26 10:09:35;;;;;;;18.35;9.88;;;;;;;-144.57;100.00;62443.72;5049942;28;20049;-65
2021/11/26 10:12:11;;;;;;;22.92;10.35;;;;;;;-144.57;100.00;62443.72;5046950;28;20045;-64
2021/11/26 10:14:40;;;;;;;20.60;10.15;;;;;;;-144.57;100.00;62443.72;5048263;28;20462;-64
2021/11/26 10:17:13;;;;;;;17.55;9.98;;;;;;;-144.57;100.00;62443.72;5029109;28;20041;-64
2021/11/26 10:19:44;;;;;;;17.65;9.85;;;;;;;-144.57;100.00;62443.72;5045432;28;20041;-63
2021/11/26 10:22:25;;;;;;;18.45;10.10;;;;;;;-144.57;100.00;62443.72;5047413;28;20045;-64
2021/11/26 10:24:58;;;;;;;;;;;;;;;-144.57;100.00;62443.72;5048646;28;20594;-64
2021/11/26 10:27:41;;;;;;;18.65;9.02;;;;;;;-144.57;100.00;62443.72;5045653;28;20439;-65
2021/11/26 10:30:19;;;;;;;25.92;10.65;;;;;;;-144.57;100.00;62443.72;5047811;28;20041;-63
2021/11/26 10:33:11;;;;;;;18.20;10.00;;;;;;;-144.57;100.00;62443.72;5046873;28;20102;-65
2021/11/26 10:35:50;;;;;;;18.20;9.88;;;;;;;-144.57;100.00;62443.72;5046669;28;20128;-64
2021/11/26 10:38:35;;;;;;;21.63;10.70;;;;;;;-144.57;100.00;62443.72;5050009;28;20063;-64
2021/11/26 10:41:14;;;;;;;19.10;10.40;;;;;;;-144.57;100.00;62443.72;5045348;28;20036;-64
2021/11/26 10:59:40;;;;;;;16.98;9.20;;;;;;;-144.57;100.00;62443.72;5047022;28;20076;-64
2021/11/26 11:02:09;;;;;;;16.33;9.23;;;;;;;-144.57;100.00;62443.72;5048253;28;20467;-63
2021/11/26 11:04:37;;;;;;;20.17;9.50;;;;;;;-144.57;100.00;62443.72;4996154;28;20044;-64
2021/11/26 11:07:07;;;;;;;17.55;10.02;;;;;;;-144.57;100.00;62443.72;5046450;28;20041;-62
2021/11/26 11:09:46;;;;;;;19.70;10.40;;;;;;;-144.57;100.00;62443.72;5030298;28;20125;-63
2021/11/26 11:12:13;;;;;;;20.02;10.52;;;;;;;-144.57;100.00;62443.72;5031275;28;20049;-64